createdAt,value
2018-07-15T00:01:14.821Z,23.00
2018-07-15T00:06:18.301Z,22.90
2018-07-15T00:11:21.845Z,22.80
2018-07-15T00:16:25.292Z,22.70
2018-07-15T00:21:28.841Z,22.60
2018-07-15T00:26:32.294Z,22.60
2018-07-15T00:31:35.752Z,22.50
2018-07-15T00:36:39.164Z,22.40
2018-07-15T00:41:42.568Z,22.30
2018-07-15T00:46:45.974Z,22.30
2018-07-15T00:51:49.369Z,22.10
2018-07-15T00:56:52.783Z,22.10
2018-07-15T01:01:56.228Z,22.00
2018-07-15T01:06:59.680Z,21.90
2018-07-15T01:12:03.177Z,21.80
2018-07-15T01:17:06.616Z,21.80
2018-07-15T01:22:10.073Z,21.70
2018-07-15T01:27:13.468Z,21.60
2018-07-15T01:32:16.864Z,21.50
2018-07-15T01:37:20.267Z,21.50
2018-07-15T01:42:25.596Z,21.40
2018-07-15T01:47:29.033Z,21.30
2018-07-15T01:52:32.399Z,21.30
2018-07-15T01:57:35.808Z,21.20
2018-07-15T02:02:39.256Z,21.20
2018-07-15T02:07:42.704Z,21.10
2018-07-15T02:12:46.230Z,21.00
2018-07-15T02:17:49.653Z,21.00
2018-07-15T02:22:53.111Z,21.00
2018-07-15T02:27:56.862Z,21.00
2018-07-15T02:33:00.714Z,20.90
2018-07-15T02:38:04.133Z,20.80
2018-07-15T02:43:07.563Z,20.70
2018-07-15T02:48:10.956Z,20.60
2018-07-15T02:53:14.372Z,20.60
2018-07-15T02:58:17.765Z,20.50
2018-07-15T03:03:21.188Z,20.60
2018-07-15T03:08:24.584Z,20.50
2018-07-15T03:13:27.999Z,20.40
2018-07-15T03:18:31.373Z,20.40
2018-07-15T03:23:35.381Z,20.40
2018-07-15T03:28:38.792Z,20.30
2018-07-15T03:33:42.217Z,20.30
2018-07-15T03:38:45.636Z,20.20
2018-07-15T03:43:49.161Z,20.20
2018-07-15T03:48:52.555Z,20.10
2018-07-15T03:53:56.072Z,20.00
2018-07-15T03:58:59.468Z,19.90
2018-07-15T04:04:02.841Z,19.80
2018-07-15T04:09:06.504Z,19.80
2018-07-15T04:14:09.881Z,19.80
2018-07-15T04:19:13.260Z,19.70
2018-07-15T04:24:17.071Z,19.70
2018-07-15T04:29:20.436Z,19.70
2018-07-15T04:34:23.870Z,19.70
2018-07-15T04:39:27.313Z,19.70
2018-07-15T04:44:30.748Z,19.70
2018-07-15T04:49:34.165Z,19.70
2018-07-15T04:54:37.582Z,19.70
2018-07-15T04:59:40.952Z,19.70
2018-07-15T05:04:44.336Z,19.80
2018-07-15T05:09:47.696Z,19.80
2018-07-15T05:14:51.159Z,19.80
2018-07-15T05:19:54.528Z,19.90
2018-07-15T05:24:57.942Z,19.90
2018-07-15T05:30:01.272Z,20.00
2018-07-15T05:35:04.779Z,20.10
2018-07-15T05:40:08.142Z,20.10
2018-07-15T05:45:11.544Z,20.30
2018-07-15T05:50:14.938Z,20.30
2018-07-15T05:55:18.314Z,20.40
2018-07-15T06:00:21.708Z,20.60
2018-07-15T06:05:25.067Z,20.60
2018-07-15T06:10:28.449Z,20.80
2018-07-15T06:15:31.836Z,21.00
2018-07-15T06:20:35.261Z,21.10
2018-07-15T06:25:38.661Z,21.30
2018-07-15T06:30:42.074Z,21.50
2018-07-15T06:40:48.642Z,21.80
2018-07-15T06:45:52.028Z,22.00
2018-07-15T06:50:55.397Z,22.30
2018-07-15T06:55:58.852Z,22.50
2018-07-15T07:01:02.188Z,22.80
2018-07-15T07:06:06.321Z,23.00
2018-07-15T07:11:09.749Z,23.20
2018-07-15T07:16:13.146Z,23.40
2018-07-15T07:21:16.508Z,23.70
2018-07-15T07:26:19.896Z,23.90
2018-07-15T07:31:23.324Z,24.10
2018-07-15T07:36:26.732Z,24.30
2018-07-15T07:41:30.178Z,24.50
2018-07-15T07:51:36.660Z,24.90
2018-07-15T07:56:40.080Z,25.20
2018-07-15T08:01:43.505Z,25.40
2018-07-15T08:06:46.885Z,25.50
2018-07-15T08:11:50.336Z,25.80
2018-07-15T08:16:53.720Z,25.90
2018-07-15T08:21:57.132Z,26.10
2018-07-15T08:27:00.524Z,26.30
2018-07-15T08:32:03.957Z,26.50
2018-07-15T08:37:07.321Z,26.60
2018-07-15T08:42:10.740Z,26.80
2018-07-15T08:47:14.147Z,27.00
2018-07-15T08:52:17.562Z,27.20
2018-07-15T08:57:20.960Z,27.40
2018-07-15T09:02:24.402Z,27.60
2018-07-15T09:07:27.868Z,27.70
2018-07-15T09:12:31.317Z,27.80
2018-07-15T09:17:34.737Z,28.10
2018-07-15T09:22:38.132Z,28.30
2018-07-15T09:27:41.620Z,28.50
2018-07-15T09:32:45.122Z,28.70
2018-07-15T09:37:48.568Z,28.80
2018-07-15T09:42:52.013Z,29.00
2018-07-15T09:47:55.414Z,29.20
2018-07-15T09:52:58.858Z,29.30
2018-07-15T09:58:02.332Z,29.40
2018-07-15T10:03:05.776Z,29.60
2018-07-15T10:08:09.177Z,29.80
2018-07-15T10:13:12.613Z,30.00
2018-07-15T10:18:16.048Z,30.10
2018-07-15T10:23:19.460Z,30.20
2018-07-15T10:28:22.844Z,30.30
2018-07-15T10:33:26.275Z,30.50
2018-07-15T10:38:29.661Z,30.60
2018-07-15T10:43:33.117Z,30.80
2018-07-15T10:48:36.537Z,30.90
2018-07-15T10:53:39.980Z,31.10
2018-07-15T10:58:43.520Z,31.30
2018-07-15T11:03:46.984Z,31.30
2018-07-15T11:08:50.412Z,31.40
2018-07-15T11:13:53.914Z,31.50
2018-07-15T11:18:57.349Z,31.60
2018-07-15T11:24:00.800Z,31.70
2018-07-15T11:29:04.333Z,31.90
2018-07-15T11:34:07.779Z,32.10
2018-07-15T11:39:11.306Z,32.20
2018-07-15T11:44:14.773Z,32.30
2018-07-15T11:49:18.289Z,32.50
2018-07-15T11:54:21.839Z,32.60
2018-07-15T11:59:25.574Z,32.80
2018-07-15T12:04:29.265Z,32.90
2018-07-15T12:09:32.850Z,33.00
2018-07-15T12:14:36.549Z,33.20
2018-07-15T12:19:40.172Z,33.40
2018-07-15T12:24:43.610Z,33.50
2018-07-15T12:29:47.049Z,33.60
2018-07-15T12:34:50.909Z,33.80
2018-07-15T12:39:54.341Z,34.00
2018-07-15T12:44:58.234Z,34.30
2018-07-15T12:50:01.645Z,34.50
2018-07-15T12:55:05.198Z,34.60
2018-07-15T13:00:08.677Z,34.50
2018-07-15T13:05:17.161Z,34.40
2018-07-15T13:10:20.549Z,34.40
2018-07-15T13:15:23.952Z,34.50
2018-07-15T13:20:27.429Z,34.60
2018-07-15T13:25:30.845Z,34.70
2018-07-15T13:30:34.325Z,34.70
2018-07-15T13:35:37.852Z,34.80
2018-07-15T13:40:41.274Z,34.90
2018-07-15T13:45:44.948Z,35.00
2018-07-15T13:50:48.535Z,34.90
2018-07-15T13:55:52.094Z,35.00
2018-07-15T14:00:55.528Z,35.10
2018-07-15T14:05:59.096Z,35.10
2018-07-15T14:11:02.598Z,35.30
2018-07-15T14:16:06.157Z,35.40
2018-07-15T14:21:09.632Z,35.50
2018-07-15T14:26:13.138Z,35.70
2018-07-15T14:31:16.861Z,35.80
2018-07-15T14:36:20.480Z,35.80
2018-07-15T14:41:23.970Z,35.70
2018-07-15T14:46:27.509Z,35.80
2018-07-15T14:51:31.191Z,35.80
2018-07-15T14:56:34.702Z,35.80
2018-07-15T15:01:41.737Z,35.90
2018-07-15T15:06:45.258Z,36.00
2018-07-15T15:11:48.905Z,36.10
2018-07-15T15:16:52.386Z,36.00
2018-07-15T15:21:55.893Z,35.80
2018-07-15T15:26:59.470Z,35.60
2018-07-15T15:32:03.056Z,35.30
2018-07-15T15:37:06.614Z,35.20
2018-07-15T15:42:10.247Z,35.20
2018-07-15T15:47:13.653Z,35.10
2018-07-15T15:52:17.089Z,35.00
2018-07-15T15:57:20.650Z,34.90
2018-07-15T16:02:24.221Z,34.90
2018-07-15T16:12:30.868Z,35.10
2018-07-15T16:17:34.309Z,35.20
2018-07-15T16:22:37.886Z,35.20
2018-07-15T16:27:41.426Z,35.20
2018-07-15T16:32:44.857Z,35.20
2018-07-15T16:37:48.348Z,35.20
2018-07-15T16:42:51.840Z,35.10
2018-07-15T16:47:55.274Z,35.20
2018-07-15T16:52:58.752Z,35.20
2018-07-15T16:58:02.208Z,35.30
2018-07-15T17:03:06.029Z,35.20
2018-07-15T17:08:09.442Z,35.20
2018-07-15T17:13:14.904Z,35.10
2018-07-15T17:18:18.367Z,35.10
2018-07-15T17:23:21.932Z,34.90
2018-07-15T17:28:25.380Z,34.80
2018-07-15T17:33:28.854Z,34.70
2018-07-15T17:38:32.324Z,34.50
2018-07-15T17:43:35.769Z,34.40
2018-07-15T17:48:39.846Z,34.30
2018-07-15T17:53:43.409Z,34.20
2018-07-15T17:58:47.004Z,34.00
2018-07-15T18:03:50.684Z,34.00
2018-07-15T18:08:54.401Z,33.80
2018-07-15T18:13:58.083Z,33.70
2018-07-15T18:19:01.714Z,33.50
2018-07-15T18:24:05.289Z,33.40
2018-07-15T18:29:08.822Z,33.20
2018-07-15T18:34:12.366Z,33.10
2018-07-15T18:39:15.968Z,33.00
2018-07-15T18:44:19.361Z,32.80
2018-07-15T18:49:26.427Z,32.60
2018-07-15T18:54:30.014Z,32.30
2018-07-15T18:59:33.492Z,31.90
2018-07-15T19:04:36.993Z,31.60
2018-07-15T19:09:41.078Z,31.20
2018-07-15T19:14:44.557Z,30.90
2018-07-15T19:19:48.044Z,30.70
2018-07-15T19:24:51.551Z,30.50
2018-07-15T19:34:58.188Z,30.10
2018-07-15T19:40:01.719Z,29.90
2018-07-15T19:45:05.213Z,29.70
2018-07-15T19:50:08.583Z,29.50
2018-07-15T19:55:12.035Z,29.30
2018-07-15T20:00:15.432Z,29.10
2018-07-15T20:05:18.889Z,29.00
2018-07-15T20:10:22.293Z,28.80
2018-07-15T20:15:25.669Z,28.70
2018-07-15T20:20:29.057Z,28.60
2018-07-15T20:25:32.487Z,28.50
2018-07-15T20:30:35.890Z,28.30
2018-07-15T20:41:06.331Z,28.10
2018-07-15T20:46:11.905Z,27.90
2018-07-15T20:51:15.337Z,27.80
2018-07-15T20:56:18.803Z,27.50
2018-07-15T21:01:22.269Z,27.30
2018-07-15T21:06:25.756Z,27.10
2018-07-15T21:11:30.272Z,27.00
2018-07-15T21:16:33.867Z,26.90
2018-07-15T21:21:38.252Z,26.70
2018-07-15T21:26:41.697Z,26.60
2018-07-15T21:31:45.132Z,26.40
2018-07-15T21:36:48.595Z,26.30
2018-07-15T21:41:52.011Z,26.10
2018-07-15T21:46:55.399Z,25.90
2018-07-15T21:51:58.782Z,25.80
2018-07-15T21:57:02.236Z,25.70
2018-07-15T22:02:05.803Z,25.50
2018-07-15T22:07:20.516Z,25.40
2018-07-15T22:12:23.989Z,25.30
2018-07-15T22:17:27.393Z,25.20
2018-07-15T22:22:30.810Z,25.10
2018-07-15T22:27:34.248Z,25.00
2018-07-15T22:32:37.640Z,24.90
2018-07-15T22:42:44.168Z,24.50
2018-07-15T22:47:47.552Z,24.20
2018-07-15T22:52:51.027Z,24.10
2018-07-15T22:57:54.404Z,24.00
2018-07-15T23:02:57.780Z,23.80
2018-07-15T23:08:01.171Z,23.80
2018-07-15T23:13:06.140Z,23.70
2018-07-15T23:18:09.564Z,23.50
2018-07-15T23:23:13.369Z,23.40
2018-07-15T23:28:17.607Z,23.40
2018-07-15T23:33:20.968Z,23.40
2018-07-15T23:38:24.336Z,23.30
2018-07-15T23:43:27.748Z,23.30
2018-07-15T23:48:31.168Z,23.30
2018-07-15T23:53:34.556Z,23.30
2018-07-15T23:58:37.930Z,23.30
